Time;durP1;ratioP1;P1;durP2;ratioP2;P2;SDS_P1;SDS_P2;PMS_P1;PMS_P2;Temp;Humidity;BMP_temperature;BMP_pressure;BME280_temperature;BME280_humidity;BME280_pressure;Samples;Min_cycle;Max_cycle;Signal;HPM_P1;HPM_P2
2023/12/11 00:01:40;;;;;;;1.00;0.73;;;;;;;;;;4897980;29;20142;-68
2023/12/11 00:05:20;;;;;;;1.23;0.85;;;;;;;;;;4904130;29;20060;-67
2023/12/11 00:09:01;;;;;;;1.02;0.57;;;;;;;;;;4908576;29;20047;-67
2023/12/11 00:12:42;;;;;;;0.60;0.60;;;;;;;;;;4899330;29;20048;-68
2023/12/11 00:16:25;;;;;;;1.42;0.45;;;;;;;;;;4901878;29;20119;-69
2023/12/11 00:20:05;;;;;;;0.60;0.50;;;;;;;;;;4898359;29;20560;-66
2023/12/11 00:23:46;;;;;;;1.80;0.55;;;;;;;;;;4906224;29;20131;-67
2023/12/11 00:27:27;;;;;;;0.75;0.68;;;;;;;;;;4900571;29;20139;-67
2023/12/11 00:31:10;;;;;;;0.77;0.50;;;;;;;;;;4908454;29;20043;-67
2023/12/11 00:34:50;;;;;;;0.70;0.60;;;;;;;;;;4900093;29;20621;-67
2023/12/11 00:38:31;;;;;;;0.40;0.40;;;;;;;;;;4904360;29;20052;-68
2023/12/11 00:42:11;;;;;;;0.50;0.50;;;;;;;;;;4899805;29;20052;-68
2023/12/11 00:45:55;;;;;;;1.67;0.40;;;;;;;;;;4902784;29;20537;-67
2023/12/11 00:49:36;;;;;;;0.28;0.28;;;;;;;;;;4901419;29;20052;-65
2023/12/11 00:53:17;;;;;;;2.83;0.43;;;;;;;;;;4892181;29;20051;-67
2023/12/11 00:56:58;;;;;;;0.50;0.50;;;;;;;;;;4907250;29;20055;-67
2023/12/11 01:00:38;;;;;;;0.50;0.50;;;;;;;;;;4898217;29;20405;-67
2023/12/11 01:04:18;;;;;;;0.30;0.30;;;;;;;;;;4895253;29;20044;-67
2023/12/11 01:07:59;;;;;;;0.30;0.30;;;;;;;;;;4908128;29;20457;-68
2023/12/11 01:11:39;;;;;;;0.55;0.47;;;;;;;;;;4899122;29;20051;-67
2023/12/11 01:15:20;;;;;;;0.47;0.43;;;;;;;;;;4899950;29;20413;-67
2023/12/11 01:19:01;;;;;;;2.40;0.40;;;;;;;;;;4903441;29;20504;-67
2023/12/11 01:22:43;;;;;;;0.40;0.30;;;;;;;;;;4901306;29;20160;-66
2023/12/11 01:26:23;;;;;;;0.25;0.25;;;;;;;;;;4898389;29;20048;-66
2023/12/11 01:30:04;;;;;;;0.30;0.30;;;;;;;;;;4903992;29;20040;-68
2023/12/11 01:33:44;;;;;;;1.45;0.50;;;;;;;;;;4910605;29;20521;-68
2023/12/11 01:37:26;;;;;;;0.40;0.30;;;;;;;;;;4904189;29;20066;-66
2023/12/11 01:41:06;;;;;;;0.47;0.32;;;;;;;;;;4895329;29;20049;-66
2023/12/11 01:44:46;;;;;;;3.67;0.35;;;;;;;;;;4902005;29;20278;-65
2023/12/11 01:48:27;;;;;;;0.60;0.40;;;;;;;;;;4905380;29;20055;-67
2023/12/11 01:52:07;;;;;;;0.50;0.43;;;;;;;;;;4896280;29;20092;-66
2023/12/11 01:55:47;;;;;;;0.70;0.50;;;;;;;;;;4896599;29;20408;-68
2023/12/11 01:59:28;;;;;;;0.75;0.50;;;;;;;;;;4900314;29;20505;-66
2023/12/11 02:03:08;;;;;;;0.40;0.40;;;;;;;;;;4904048;29;20296;-67
2023/12/11 02:06:50;;;;;;;0.82;0.47;;;;;;;;;;4903347;29;20562;-66
2023/12/11 02:10:29;;;;;;;0.40;0.40;;;;;;;;;;4895324;29;20055;-66
2023/12/11 02:14:10;;;;;;;0.63;0.60;;;;;;;;;;4905528;29;20052;-66
2023/12/11 02:17:51;;;;;;;1.25;0.50;;;;;;;;;;4911761;29;20618;-67
2023/12/11 02:21:32;;;;;;;0.25;0.20;;;;;;;;;;4901279;29;20052;-65
2023/12/11 02:25:12;;;;;;;0.82;0.60;;;;;;;;;;4899209;29;20100;-65
2023/12/11 02:28:52;;;;;;;0.55;0.55;;;;;;;;;;4906646;29;20126;-67
2023/12/11 02:32:32;;;;;;;2.13;0.52;;;;;;;;;;4904752;29;20510;-67
2023/12/11 02:36:13;;;;;;;1.02;0.50;;;;;;;;;;4911884;29;20127;-66
2023/12/11 02:39:53;;;;;;;1.20;0.50;;;;;;;;;;4896433;29;20070;-66
2023/12/11 02:43:34;;;;;;;1.80;0.50;;;;;;;;;;4905960;29;22570;-67
2023/12/11 02:47:14;;;;;;;0.88;0.40;;;;;;;;;;4904591;29;20048;-66
2023/12/11 02:50:55;;;;;;;0.43;0.43;;;;;;;;;;4904964;29;20048;-65
2023/12/11 02:54:36;;;;;;;1.20;0.60;;;;;;;;;;4895665;29;20072;-66
2023/12/11 02:58:18;;;;;;;1.25;0.43;;;;;;;;;;4905734;29;20112;-67
2023/12/11 03:01:58;;;;;;;1.38;0.75;;;;;;;;;;4899998;29;20063;-65
2023/12/11 03:05:39;;;;;;;1.08;0.65;;;;;;;;;;4898955;29;20303;-67
2023/12/11 03:09:20;;;;;;;1.73;0.60;;;;;;;;;;4910224;29;20052;-65
2023/12/11 03:13:00;;;;;;;0.82;0.60;;;;;;;;;;4897845;29;20405;-67
2023/12/11 03:16:41;;;;;;;0.40;0.40;;;;;;;;;;4903528;29;20056;-65
2023/12/11 03:20:22;;;;;;;0.60;0.60;;;;;;;;;;4900761;29;20143;-67
2023/12/11 03:24:02;;;;;;;1.05;0.77;;;;;;;;;;4898405;29;20047;-66
2023/12/11 03:27:42;;;;;;;0.73;0.60;;;;;;;;;;4903266;29;20048;-67
2023/12/11 03:31:22;;;;;;;0.55;0.50;;;;;;;;;;4901751;29;20505;-68
2023/12/11 03:35:03;;;;;;;1.13;0.70;;;;;;;;;;4901970;29;20451;-65
2023/12/11 03:38:59;;;;;;;0.80;0.80;;;;;;;;;;4896672;29;20071;-66
2023/12/11 03:42:40;;;;;;;0.68;0.68;;;;;;;;;;4900583;29;20044;-66
2023/12/11 03:46:20;;;;;;;1.63;0.90;;;;;;;;;;4896601;29;20052;-65
2023/12/11 03:50:02;;;;;;;1.58;0.60;;;;;;;;;;4899646;29;20131;-65
2023/12/11 03:53:42;;;;;;;0.82;0.60;;;;;;;;;;4906438;29;20472;-65
2023/12/11 03:57:23;;;;;;;1.42;0.63;;;;;;;;;;4898738;29;20048;-66
2023/12/11 04:01:04;;;;;;;0.82;0.55;;;;;;;;;;4899940;29;20502;-66
2023/12/11 04:04:45;;;;;;;0.82;0.70;;;;;;;;;;4901271;29;20666;-66
2023/12/11 04:08:25;;;;;;;2.53;0.73;;;;;;;;;;4902475;29;20063;-65
2023/12/11 04:12:05;;;;;;;2.15;0.60;;;;;;;;;;4897641;29;20048;-70
2023/12/11 04:15:50;;;;;;;1.88;0.50;;;;;;;;;;4907934;29;20119;-66
2023/12/11 04:19:33;;;;;;;0.90;0.60;;;;;;;;;;4907051;29;20076;-65
2023/12/11 04:23:14;;;;;;;2.92;0.73;;;;;;;;;;4899790;29;20111;-66
2023/12/11 04:26:55;;;;;;;1.23;0.70;;;;;;;;;;4903402;29;20075;-66
2023/12/11 04:30:36;;;;;;;3.15;0.70;;;;;;;;;;4901867;29;20397;-65
2023/12/11 04:34:17;;;;;;;0.85;0.52;;;;;;;;;;4907924;29;20056;-66
2023/12/11 04:37:58;;;;;;;0.98;0.60;;;;;;;;;;4900283;29;20095;-68
2023/12/11 04:41:38;;;;;;;1.00;0.70;;;;;;;;;;4899458;29;20047;-66
2023/12/11 04:45:18;;;;;;;1.52;0.68;;;;;;;;;;4901985;29;20059;-66
2023/12/11 04:48:58;;;;;;;0.90;0.80;;;;;;;;;;4904505;29;20118;-64
2023/12/11 04:52:39;;;;;;;1.00;0.80;;;;;;;;;;4899996;29;20226;-69
2023/12/11 04:56:19;;;;;;;0.80;0.80;;;;;;;;;;4905540;29;20063;-65
2023/12/11 05:00:01;;;;;;;1.45;0.73;;;;;;;;;;4909427;29;20096;-65
2023/12/11 05:03:44;;;;;;;2.35;0.60;;;;;;;;;;4902711;29;20104;-65
2023/12/11 05:07:25;;;;;;;0.80;0.50;;;;;;;;;;4905695;29;20052;-65
2023/12/11 05:11:05;;;;;;;1.38;0.68;;;;;;;;;;4905610;29;20041;-65
2023/12/11 05:14:45;;;;;;;0.63;0.60;;;;;;;;;;4910586;29;20100;-66
2023/12/11 05:18:26;;;;;;;0.65;0.63;;;;;;;;;;4909777;29;21369;-69
2023/12/11 05:22:06;;;;;;;0.60;0.60;;;;;;;;;;4901268;29;20459;-68
2023/12/11 05:25:46;;;;;;;0.98;0.60;;;;;;;;;;4904263;29;20408;-65
2023/12/11 05:29:30;;;;;;;1.70;0.60;;;;;;;;;;4909940;29;20052;-70
2023/12/11 05:33:10;;;;;;;1.35;0.40;;;;;;;;;;4906027;29;20079;-70
2023/12/11 05:36:51;;;;;;;0.60;0.40;;;;;;;;;;4901455;29;20461;-66
2023/12/11 05:40:32;;;;;;;0.75;0.60;;;;;;;;;;4903304;29;20052;-66
2023/12/11 05:44:13;;;;;;;0.70;0.70;;;;;;;;;;4904941;29;20096;-67
2023/12/11 05:47:53;;;;;;;1.35;0.57;;;;;;;;;;4907301;29;20509;-66
2023/12/11 05:51:33;;;;;;;0.68;0.68;;;;;;;;;;4900435;29;20045;-66
2023/12/11 05:55:14;;;;;;;1.42;0.88;;;;;;;;;;4898302;29;20085;-66
2023/12/11 05:58:54;;;;;;;0.80;0.80;;;;;;;;;;4898875;29;20466;-65
2023/12/11 06:02:34;;;;;;;1.95;0.63;;;;;;;;;;4898685;29;20059;-66
2023/12/11 06:06:15;;;;;;;0.82;0.75;;;;;;;;;;4900445;29;20040;-66
2023/12/11 06:09:55;;;;;;;2.22;0.60;;;;;;;;;;4905520;29;20465;-66
2023/12/11 06:13:35;;;;;;;0.70;0.70;;;;;;;;;;4901234;29;20041;-65
2023/12/11 06:17:16;;;;;;;4.30;0.85;;;;;;;;;;4910796;29;20115;-66
2023/12/11 06:20:58;;;;;;;1.20;0.90;;;;;;;;;;4903406;29;20056;-70
2023/12/11 06:24:37;;;;;;;1.23;0.90;;;;;;;;;;4903677;29;20040;-67
2023/12/11 06:28:17;;;;;;;1.23;0.98;;;;;;;;;;4905424;29;20099;-65
2023/12/11 06:31:57;;;;;;;1.15;0.85;;;;;;;;;;4898724;29;20063;-67
2023/12/11 06:34:58;;;;;;;1.33;0.90;;;;;;;;;;4899549;29;20401;-67
2023/12/11 06:37:26;;;;;;;1.67;0.90;;;;;;;;;;4887884;29;20055;-68
2023/12/11 06:39:52;;;;;;;3.83;1.00;;;;;;;;;;4907410;29;20067;-68
2023/12/11 06:42:18;;;;;;;3.15;1.20;;;;;;;;;;4902224;29;20044;-66
2023/12/11 06:44:44;;;;;;;1.50;1.02;;;;;;;;;;4902480;29;20079;-67
2023/12/11 06:47:13;;;;;;;5.32;1.13;;;;;;;;;;4906833;29;20056;-67
2023/12/11 06:49:42;;;;;;;2.53;1.05;;;;;;;;;;4888842;29;20052;-64
2023/12/11 06:52:09;;;;;;;1.92;0.90;;;;;;;;;;4898878;29;20055;-66
2023/12/11 06:54:35;;;;;;;2.13;1.02;;;;;;;;;;4909501;29;20064;-65
2023/12/11 06:57:01;;;;;;;3.10;1.10;;;;;;;;;;4908326;29;20131;-65
2023/12/11 06:59:28;;;;;;;1.45;1.20;;;;;;;;;;4897052;29;20055;-64
2023/12/11 07:01:57;;;;;;;3.70;1.08;;;;;;;;;;4898149;29;20526;-64
2023/12/11 07:04:23;;;;;;;3.42;1.00;;;;;;;;;;4906153;29;20152;-66
2023/12/11 07:06:51;;;;;;;1.63;1.00;;;;;;;;;;4873835;29;20059;-66
2023/12/11 07:09:19;;;;;;;2.45;1.30;;;;;;;;;;4896305;29;20465;-66
2023/12/11 07:11:46;;;;;;;2.17;1.20;;;;;;;;;;4899626;29;20044;-64
2023/12/11 07:14:12;;;;;;;3.00;1.23;;;;;;;;;;4887319;29;20047;-66
2023/12/11 07:17:18;;;;;;;2.10;1.23;;;;;;;;;;4903577;29;20142;-66
2023/12/11 07:20:59;;;;;;;5.40;1.50;;;;;;;;;;4893646;29;20052;-65
2023/12/11 07:24:40;;;;;;;2.50;1.20;;;;;;;;;;4899999;29;20458;-64
2023/12/11 07:28:25;;;;;;;5.95;1.88;;;;;;;;;;4904378;29;20052;-68
2023/12/11 07:32:05;;;;;;;4.05;1.98;;;;;;;;;;4898532;29;20066;-65
2023/12/11 07:35:45;;;;;;;7.60;2.83;;;;;;;;;;4896377;29;20420;-67
2023/12/11 07:39:26;;;;;;;6.03;2.85;;;;;;;;;;4898092;29;20060;-64
2023/12/11 07:43:07;;;;;;;8.38;3.88;;;;;;;;;;4899145;29;20048;-66
2023/12/11 07:46:46;;;;;;;10.80;2.47;;;;;;;;;;4905461;29;20054;-65
2023/12/11 07:50:27;;;;;;;7.22;2.20;;;;;;;;;;4901301;29;20063;-69
2023/12/11 07:54:08;;;;;;;11.05;2.83;;;;;;;;;;4897322;29;20087;-64
2023/12/11 07:57:47;;;;;;;7.53;1.77;;;;;;;;;;4904378;29;20083;-63
2023/12/11 08:01:28;;;;;;;5.20;1.50;;;;;;;;;;4907003;29;20083;-64
2023/12/11 08:05:09;;;;;;;2.60;1.33;;;;;;;;;;4902258;29;20053;-63
2023/12/11 08:08:49;;;;;;;1.75;1.30;;;;;;;;;;4898970;29;20327;-64
2023/12/11 08:12:30;;;;;;;2.35;1.40;;;;;;;;;;4894503;29;20107;-65
2023/12/11 08:16:09;;;;;;;5.65;1.52;;;;;;;;;;4904076;29;20087;-66
2023/12/11 08:19:50;;;;;;;4.03;1.45;;;;;;;;;;4913587;29;20075;-63
2023/12/11 08:23:30;;;;;;;5.68;1.70;;;;;;;;;;4907811;29;20055;-64
2023/12/11 08:27:11;;;;;;;4.50;1.83;;;;;;;;;;4900333;29;20425;-67
2023/12/11 08:30:51;;;;;;;5.47;1.60;;;;;;;;;;4905026;29;20477;-63
2023/12/11 08:34:33;;;;;;;3.20;1.50;;;;;;;;;;4898979;29;20101;-64
2023/12/11 08:38:16;;;;;;;5.25;1.50;;;;;;;;;;4904077;29;20126;-65
2023/12/11 08:41:56;;;;;;;2.65;1.40;;;;;;;;;;4900875;29;20490;-63
2023/12/11 08:44:56;;;;;;;2.92;1.23;;;;;;;;;;4897860;29;20048;-62
2023/12/11 08:47:27;;;;;;;2.05;1.20;;;;;;;;;;4895112;29;20056;-63
2023/12/11 08:49:55;;;;;;;6.63;1.50;;;;;;;;;;4909886;29;20060;-66
2023/12/11 08:52:21;;;;;;;3.38;1.30;;;;;;;;;;4904916;29;20048;-61
2023/12/11 08:55:13;;;;;;;2.58;1.40;;;;;;;;;;4895028;29;20048;-64
2023/12/11 08:57:42;;;;;;;2.10;1.10;;;;;;;;;;4894000;29;20052;-63
2023/12/11 09:00:10;;;;;;;5.57;1.23;;;;;;;;;;4897726;29;20080;-67
2023/12/11 09:02:37;;;;;;;2.83;1.40;;;;;;;;;;4911850;29;20056;-63
2023/12/11 09:05:03;;;;;;;1.38;1.10;;;;;;;;;;4909552;29;20106;-64
2023/12/11 09:07:34;;;;;;;3.63;1.50;;;;;;;;;;4901940;29;20278;-62
2023/12/11 09:10:02;;;;;;;3.45;1.50;;;;;;;;;;4908188;29;20128;-63
2023/12/11 09:12:29;;;;;;;5.22;1.50;;;;;;;;;;4922768;29;20422;-62
2023/12/11 09:14:56;;;;;;;4.22;1.58;;;;;;;;;;4898924;29;20071;-63
2023/12/11 09:17:23;;;;;;;2.88;1.48;;;;;;;;;;4897334;29;20056;-63
2023/12/11 09:19:49;;;;;;;2.95;1.40;;;;;;;;;;4907218;29;20060;-63
2023/12/11 09:22:19;;;;;;;2.95;1.73;;;;;;;;;;4899710;29;20079;-62
2023/12/11 09:24:45;;;;;;;4.68;1.40;;;;;;;;;;4903294;29;20053;-64
2023/12/11 09:27:12;;;;;;;2.10;1.42;;;;;;;;;;4903276;29;20052;-63
2023/12/11 09:29:38;;;;;;;2.53;1.13;;;;;;;;;;4907491;29;20055;-64
2023/12/11 09:32:05;;;;;;;5.05;1.30;;;;;;;;;;4901755;29;20144;-64
2023/12/11 09:34:33;;;;;;;3.00;1.42;;;;;;;;;;4904286;29;20084;-63
2023/12/11 09:36:59;;;;;;;3.75;1.50;;;;;;;;;;4911682;29;20511;-63
2023/12/11 09:39:26;;;;;;;1.70;1.30;;;;;;;;;;4909435;29;20044;-64
2023/12/11 09:41:55;;;;;;;3.70;1.40;;;;;;;;;;4905306;29;20060;-64
2023/12/11 09:44:23;;;;;;;6.07;1.20;;;;;;;;;;4909891;29;20798;-63
2023/12/11 09:47:08;;;;;;;3.28;1.17;;;;;;;;;;4911886;29;20154;-63
2023/12/11 09:49:35;;;;;;;7.30;1.23;;;;;;;;;;4903659;29;20144;-63
2023/12/11 09:52:02;;;;;;;8.70;1.25;;;;;;;;;;4899470;29;20135;-64
2023/12/11 09:54:28;;;;;;;5.22;1.17;;;;;;;;;;4896974;29;20053;-65
2023/12/11 09:56:57;;;;;;;2.05;1.25;;;;;;;;;;4920720;29;20060;-63
2023/12/11 09:59:25;;;;;;;2.30;1.30;;;;;;;;;;4904474;29;20489;-63
2023/12/11 10:01:53;;;;;;;4.20;1.30;;;;;;;;;;4908311;29;20139;-67
2023/12/11 10:04:18;;;;;;;7.38;1.50;;;;;;;;;;4908713;29;20462;-64
2023/12/11 10:06:46;;;;;;;1.73;1.30;;;;;;;;;;4893475;29;20052;-63
2023/12/11 10:09:34;;;;;;;5.78;1.15;;;;;;;;;;4887425;29;20048;-63
2023/12/11 10:12:03;;;;;;;3.42;1.33;;;;;;;;;;4902706;29;20052;-63
2023/12/11 10:14:30;;;;;;;1.95;1.00;;;;;;;;;;4904661;29;20056;-63
2023/12/11 10:16:57;;;;;;;5.90;1.02;;;;;;;;;;4907425;29;20056;-65
2023/12/11 10:19:34;;;;;;;3.75;1.50;;;;;;;;;;4906529;29;20151;-66
2023/12/11 10:22:00;;;;;;;3.45;1.20;;;;;;;;;;4908371;29;20060;-63
2023/12/11 10:24:29;;;;;;;2.22;1.10;;;;;;;;;;4905470;29;20182;-65
2023/12/11 10:26:56;;;;;;;1.70;0.90;;;;;;;;;;4908366;29;20048;-65
2023/12/11 10:29:29;;;;;;;5.75;0.98;;;;;;;;;;4897263;29;20884;-63
2023/12/11 10:32:01;;;;;;;;;;;;;;;;;;4908015;29;20056;-67
2023/12/11 10:34:50;;;;;;;2.58;0.85;;;;;;;;;;4928165;29;19965;-63
2023/12/11 10:37:18;;;;;;;4.72;1.10;;;;;;;;;;4904660;29;20613;-64
2023/12/11 10:39:55;;;;;;;3.53;1.10;;;;;;;;;;4904163;29;20415;-63
2023/12/11 10:42:22;;;;;;;4.78;1.13;;;;;;;;;;4909512;29;20631;-69
2023/12/11 10:44:49;;;;;;;7.00;1.30;;;;;;;;;;4903351;29;20143;-65
2023/12/11 10:47:57;;;;;;;5.05;1.40;;;;;;;;;;4909073;29;20048;-64
2023/12/11 10:50:43;;;;;;;1.25;1.00;;;;;;;;;;4896597;29;20144;-65
2023/12/11 10:53:12;;;;;;;2.15;1.30;;;;;;;;;;4890195;29;20139;-62
2023/12/11 10:56:18;;;;;;;5.40;1.17;;;;;;;;;;4899308;29;20056;-69
2023/12/11 10:59:28;;;;;;;5.00;1.13;;;;;;;;;;4900407;29;20060;-65
2023/12/11 11:02:24;;;;;;;1.40;0.95;;;;;;;;;;4906870;29;20049;-63
2023/12/11 11:04:51;;;;;;;7.40;1.38;;;;;;;;;;4886557;29;20057;-62
2023/12/11 11:07:21;;;;;;;4.45;1.20;;;;;;;;;;4899594;29;20061;-63
2023/12/11 11:10:10;;;;;;;2.55;1.30;;;;;;;;;;4900169;29;20111;-62
2023/12/11 11:12:47;;;;;;;2.88;1.10;;;;;;;;;;4905650;29;20123;-62
2023/12/11 11:15:25;;;;;;;6.10;1.15;;;;;;;;;;4901708;29;20049;-65
2023/12/11 11:17:59;;;;;;;4.55;0.90;;;;;;;;;;4913181;29;20413;-67
2023/12/11 11:20:30;;;;;;;3.90;1.30;;;;;;;;;;4901986;29;20530;-64
2023/12/11 11:23:19;;;;;;;5.10;1.70;;;;;;;;;;4902136;29;20063;-64
2023/12/11 11:25:53;;;;;;;2.90;1.10;;;;;;;;;;4911928;29;20080;-65
2023/12/11 11:28:50;;;;;;;5.90;1.07;;;;;;;;;;4902523;29;20140;-64
2023/12/11 11:31:18;;;;;;;5.32;1.10;;;;;;;;;;4917892;29;20052;-64
2023/12/11 11:33:49;;;;;;;2.85;1.33;;;;;;;;;;4905925;29;20488;-70
2023/12/11 11:36:19;;;;;;;2.53;1.10;;;;;;;;;;4900308;29;20184;-62
2023/12/11 11:38:58;;;;;;;7.15;1.50;;;;;;;;;;4897713;29;20083;-62
2023/12/11 11:41:26;;;;;;;5.70;1.35;;;;;;;;;;4896051;29;20483;-63
2023/12/11 11:43:56;;;;;;;18.65;1.20;;;;;;;;;;4893555;29;20068;-65
2023/12/11 11:46:22;;;;;;;4.35;1.25;;;;;;;;;;4897393;29;20048;-66
2023/12/11 11:48:47;;;;;;;1.67;1.00;;;;;;;;;;4910013;29;20052;-64
2023/12/11 11:51:14;;;;;;;3.25;1.05;;;;;;;;;;4910108;29;20052;-65
2023/12/11 11:53:43;;;;;;;3.65;0.98;;;;;;;;;;4901680;29;20418;-64
2023/12/11 11:56:11;;;;;;;5.13;1.30;;;;;;;;;;4904886;29;20048;-62
2023/12/11 11:58:37;;;;;;;9.20;1.33;;;;;;;;;;4903598;29;20060;-63
2023/12/11 12:01:07;;;;;;;5.93;1.15;;;;;;;;;;4914266;29;20623;-64
2023/12/11 12:03:42;;;;;;;7.15;1.10;;;;;;;;;;4910102;29;20063;-62
2023/12/11 12:06:09;;;;;;;3.85;0.95;;;;;;;;;;4907094;29;20099;-64
2023/12/11 12:08:36;;;;;;;10.57;1.45;;;;;;;;;;4911177;29;20111;-64
2023/12/11 12:11:05;;;;;;;4.72;1.15;;;;;;;;;;4903572;29;20248;-65
2023/12/11 12:13:36;;;;;;;9.20;1.40;;;;;;;;;;4904424;29;20052;-62
2023/12/11 12:16:03;;;;;;;4.35;1.45;;;;;;;;;;4905348;29;20057;-66
2023/12/11 12:18:33;;;;;;;4.70;1.30;;;;;;;;;;4906573;29;20044;-66
2023/12/11 12:21:09;;;;;;;5.00;1.30;;;;;;;;;;4894234;29;20060;-64
2023/12/11 12:23:35;;;;;;;4.15;1.35;;;;;;;;;;4895820;29;20053;-64
2023/12/11 12:26:05;;;;;;;5.75;1.20;;;;;;;;;;4892729;29;20132;-65
2023/12/11 12:28:31;;;;;;;5.95;1.10;;;;;;;;;;4895383;29;20036;-65
2023/12/11 12:30:57;;;;;;;7.05;1.98;;;;;;;;;;4903983;29;20071;-64
2023/12/11 12:33:25;;;;;;;1.60;1.20;;;;;;;;;;4902553;29;20059;-64
2023/12/11 12:35:51;;;;;;;1.73;0.80;;;;;;;;;;4900611;29;20123;-66
2023/12/11 12:38:18;;;;;;;3.72;1.08;;;;;;;;;;4903897;29;20480;-66
2023/12/11 12:40:45;;;;;;;7.55;1.25;;;;;;;;;;4903584;29;20838;-65
2023/12/11 12:43:14;;;;;;;3.33;1.02;;;;;;;;;;4901969;29;20095;-65
2023/12/11 12:45:44;;;;;;;4.57;0.90;;;;;;;;;;4893818;29;20052;-65
2023/12/11 12:48:10;;;;;;;6.55;1.23;;;;;;;;;;4902176;29;20476;-64
2023/12/11 12:50:37;;;;;;;5.63;1.08;;;;;;;;;;4894945;29;20059;-64
2023/12/11 12:53:10;;;;;;;10.93;1.30;;;;;;;;;;4896168;29;20048;-64
2023/12/11 12:55:38;;;;;;;13.75;1.27;;;;;;;;;;4903270;29;20083;-64
2023/12/11 12:58:07;;;;;;;10.63;1.88;;;;;;;;;;4901076;29;20056;-65
2023/12/11 13:00:35;;;;;;;9.73;1.60;;;;;;;;;;4895838;29;20091;-63
2023/12/11 13:03:07;;;;;;;10.95;1.48;;;;;;;;;;4909522;29;20044;-65
2023/12/11 13:05:44;;;;;;;7.53;1.25;;;;;;;;;;4909431;29;20044;-66
2023/12/11 13:08:11;;;;;;;5.10;1.40;;;;;;;;;;4908419;29;20056;-65
2023/12/11 13:10:39;;;;;;;9.20;1.40;;;;;;;;;;4905052;29;20123;-65
2023/12/11 13:13:14;;;;;;;6.97;1.48;;;;;;;;;;4907298;29;20110;-65
2023/12/11 13:15:40;;;;;;;6.45;1.23;;;;;;;;;;4915340;29;20060;-64
2023/12/11 13:18:06;;;;;;;10.65;1.15;;;;;;;;;;4903602;29;20059;-64
2023/12/11 13:20:33;;;;;;;2.85;1.10;;;;;;;;;;4909188;29;20083;-63
2023/12/11 13:22:59;;;;;;;4.53;1.08;;;;;;;;;;4908431;29;20511;-62
2023/12/11 13:25:25;;;;;;;3.13;1.20;;;;;;;;;;4900907;29;20040;-65
2023/12/11 13:27:51;;;;;;;4.10;1.30;;;;;;;;;;4901299;29;20064;-63
2023/12/11 13:30:17;;;;;;;4.82;1.35;;;;;;;;;;4915330;29;20057;-62
2023/12/11 13:32:44;;;;;;;9.30;1.80;;;;;;;;;;4905084;29;20062;-63
2023/12/11 13:35:10;;;;;;;7.38;1.60;;;;;;;;;;4898475;29;20057;-64
2023/12/11 13:37:37;;;;;;;3.15;1.67;;;;;;;;;;4901967;29;20347;-63
2023/12/11 13:40:05;;;;;;;3.78;1.20;;;;;;;;;;4900426;29;20131;-72
2023/12/11 13:42:31;;;;;;;3.60;1.20;;;;;;;;;;4909109;29;20285;-62
2023/12/11 13:44:58;;;;;;;8.85;1.73;;;;;;;;;;4904944;29;20053;-63
2023/12/11 13:47:25;;;;;;;4.28;1.38;;;;;;;;;;4899193;29;20457;-65
2023/12/11 13:49:52;;;;;;;6.22;1.60;;;;;;;;;;4903748;29;20111;-64
2023/12/11 13:52:22;;;;;;;6.22;2.10;;;;;;;;;;4905987;29;20048;-63
2023/12/11 13:54:51;;;;;;;5.40;1.77;;;;;;;;;;4906104;29;20127;-66
2023/12/11 13:57:20;;;;;;;6.88;1.90;;;;;;;;;;4907626;29;20127;-64
2023/12/11 13:59:47;;;;;;;7.88;2.00;;;;;;;;;;4908242;29;20421;-63
2023/12/11 14:02:17;;;;;;;4.60;1.35;;;;;;;;;;4903346;29;20108;-63
2023/12/11 14:04:46;;;;;;;5.45;1.83;;;;;;;;;;4904879;29;20525;-64
2023/12/11 14:07:14;;;;;;;4.38;1.13;;;;;;;;;;4899124;29;20063;-66
2023/12/11 14:09:44;;;;;;;3.85;1.17;;;;;;;;;;4903762;29;20044;-65
2023/12/11 14:12:11;;;;;;;2.60;1.10;;;;;;;;;;4906325;29;20092;-65
2023/12/11 14:14:37;;;;;;;6.07;1.30;;;;;;;;;;4907303;29;20053;-64
2023/12/11 14:17:05;;;;;;;5.70;1.40;;;;;;;;;;4864297;29;20055;-65
2023/12/11 14:19:31;;;;;;;8.18;1.20;;;;;;;;;;4861854;29;20522;-65
2023/12/11 14:21:57;;;;;;;5.05;1.17;;;;;;;;;;4868635;29;20156;-66
2023/12/11 14:24:25;;;;;;;4.55;1.00;;;;;;;;;;4873250;29;20064;-66
2023/12/11 14:26:52;;;;;;;4.75;1.00;;;;;;;;;;4863928;29;20435;-63
2023/12/11 14:29:27;;;;;;;2.17;1.02;;;;;;;;;;4867657;29;20330;-66
2023/12/11 14:31:53;;;;;;;6.80;1.20;;;;;;;;;;4866483;29;20056;-68
2023/12/11 14:34:21;;;;;;;7.50;1.23;;;;;;;;;;4866819;29;20358;-64
2023/12/11 14:36:47;;;;;;;10.25;1.15;;;;;;;;;;4866465;29;20151;-64
2023/12/11 14:39:13;;;;;;;8.38;1.30;;;;;;;;;;4868243;29;20053;-68
2023/12/11 14:41:43;;;;;;;11.45;1.40;;;;;;;;;;4866622;29;20057;-65
2023/12/11 14:44:10;;;;;;;5.80;1.30;;;;;;;;;;4870893;29;20489;-64
2023/12/11 14:46:39;;;;;;;6.03;1.05;;;;;;;;;;4867323;29;20064;-66
2023/12/11 14:49:06;;;;;;;2.92;0.95;;;;;;;;;;4858623;29;20177;-63
2023/12/11 14:51:38;;;;;;;6.07;1.33;;;;;;;;;;4869128;29;20180;-64
2023/12/11 14:54:07;;;;;;;5.03;1.10;;;;;;;;;;4867838;29;20114;-67
2023/12/11 14:56:34;;;;;;;7.03;1.38;;;;;;;;;;4864409;29;20041;-65
2023/12/11 14:59:09;;;;;;;4.30;1.20;;;;;;;;;;4868139;29;20053;-65
2023/12/11 15:01:36;;;;;;;5.68;1.10;;;;;;;;;;4869656;29;20052;-65
2023/12/11 15:04:04;;;;;;;2.17;1.20;;;;;;;;;;4867656;29;20049;-65
2023/12/11 15:06:31;;;;;;;3.25;1.23;;;;;;;;;;4858122;29;20063;-66
2023/12/11 15:09:39;;;;;;;3.63;1.23;;;;;;;;;;4869346;29;20062;-66
2023/12/11 15:13:20;;;;;;;10.65;1.92;;;;;;;;;;4866797;29;20061;-64
2023/12/11 15:17:01;;;;;;;7.18;1.58;;;;;;;;;;4886638;29;20060;-63
2023/12/11 15:20:45;;;;;;;4.25;1.20;;;;;;;;;;4910773;29;20832;-64
2023/12/11 15:24:25;;;;;;;5.68;1.52;;;;;;;;;;4912637;29;20491;-65
2023/12/11 15:28:07;;;;;;;5.43;1.17;;;;;;;;;;4899009;29;20048;-65
2023/12/11 15:31:47;;;;;;;11.32;1.50;;;;;;;;;;4899418;29;20453;-66
2023/12/11 15:35:28;;;;;;;9.73;1.60;;;;;;;;;;4904929;29;20484;-64
2023/12/11 15:39:08;;;;;;;8.40;1.70;;;;;;;;;;4908756;29;20217;-65
2023/12/11 15:42:50;;;;;;;8.85;2.25;;;;;;;;;;4899019;29;20055;-64
2023/12/11 15:46:30;;;;;;;6.65;1.88;;;;;;;;;;4904180;29;20048;-64
2023/12/11 15:50:10;;;;;;;7.53;1.75;;;;;;;;;;4908242;29;20489;-62
2023/12/11 15:53:52;;;;;;;5.53;1.50;;;;;;;;;;4903970;29;20049;-67
2023/12/11 15:57:35;;;;;;;8.70;1.70;;;;;;;;;;4909709;29;20044;-64
2023/12/11 16:01:16;;;;;;;6.68;1.25;;;;;;;;;;4914419;29;20269;-64
2023/12/11 16:04:56;;;;;;;4.18;1.20;;;;;;;;;;4897529;29;20474;-66
2023/12/11 16:08:36;;;;;;;4.47;1.13;;;;;;;;;;4894602;29;20515;-63
2023/12/11 16:12:16;;;;;;;3.72;1.25;;;;;;;;;;4904969;29;20044;-65
2023/12/11 16:15:57;;;;;;;8.30;1.40;;;;;;;;;;4899011;29;20114;-62
2023/12/11 16:19:42;;;;;;;5.65;1.10;;;;;;;;;;4901263;29;20160;-64
2023/12/11 16:23:25;;;;;;;4.68;1.20;;;;;;;;;;4903940;29;20054;-64
2023/12/11 16:27:05;;;;;;;4.25;0.90;;;;;;;;;;4900082;29;20044;-63
2023/12/11 16:30:46;;;;;;;2.70;1.10;;;;;;;;;;4908601;29;20090;-63
2023/12/11 16:34:28;;;;;;;5.95;1.10;;;;;;;;;;4908486;29;20052;-63
2023/12/11 16:38:08;;;;;;;2.35;1.15;;;;;;;;;;4916385;29;20048;-62
2023/12/11 16:41:49;;;;;;;12.73;2.40;;;;;;;;;;4908615;29;20059;-66
2023/12/11 16:45:30;;;;;;;11.20;1.77;;;;;;;;;;4912030;29;20468;-63
2023/12/11 16:49:10;;;;;;;16.50;1.98;;;;;;;;;;4904925;29;20158;-64
2023/12/11 16:52:53;;;;;;;6.72;1.60;;;;;;;;;;4898035;29;20068;-68
2023/12/11 16:56:33;;;;;;;8.77;1.50;;;;;;;;;;4909328;29;20044;-68
2023/12/11 17:00:16;;;;;;;13.50;1.80;;;;;;;;;;4903130;29;20496;-67
2023/12/11 17:03:58;;;;;;;6.18;1.75;;;;;;;;;;4908859;29;20412;-65
2023/12/11 17:07:38;;;;;;;10.88;1.92;;;;;;;;;;4906614;29;20416;-66
2023/12/11 17:11:19;;;;;;;9.23;2.10;;;;;;;;;;4898206;29;20462;-66
2023/12/11 17:14:59;;;;;;;5.38;1.30;;;;;;;;;;4913469;29;20124;-64
2023/12/11 17:18:41;;;;;;;5.90;1.40;;;;;;;;;;4868156;29;20463;-65
2023/12/11 17:22:21;;;;;;;6.65;1.48;;;;;;;;;;4863669;29;20638;-66
2023/12/11 17:26:01;;;;;;;3.70;1.27;;;;;;;;;;4868917;29;20137;-67
2023/12/11 17:29:42;;;;;;;3.38;1.15;;;;;;;;;;4868225;29;20057;-65
2023/12/11 17:33:25;;;;;;;2.10;1.08;;;;;;;;;;4861160;29;20080;-65
2023/12/11 17:37:07;;;;;;;5.32;1.05;;;;;;;;;;4864876;29;20044;-63
2023/12/11 17:40:47;;;;;;;8.50;1.38;;;;;;;;;;4865838;29;20080;-63
2023/12/11 17:44:28;;;;;;;5.97;1.30;;;;;;;;;;4863538;29;20336;-62
2023/12/11 17:48:08;;;;;;;4.18;1.30;;;;;;;;;;4861915;29;20057;-66
2023/12/11 17:51:51;;;;;;;5.05;1.27;;;;;;;;;;4859718;29;20786;-68
2023/12/11 17:55:30;;;;;;;3.47;1.70;;;;;;;;;;4869298;29;20101;-64
2023/12/11 17:59:10;;;;;;;7.90;2.47;;;;;;;;;;4866270;29;20236;-65
2023/12/11 18:02:51;;;;;;;11.07;4.97;;;;;;;;;;4866295;29;20061;-65
2023/12/11 18:06:35;;;;;;;14.23;5.57;;;;;;;;;;4864833;29;20061;-64
2023/12/11 18:10:17;;;;;;;10.27;4.63;;;;;;;;;;4863854;29;20092;-64
2023/12/11 18:13:57;;;;;;;8.85;4.22;;;;;;;;;;4867079;29;20132;-69
2023/12/11 18:17:37;;;;;;;9.20;4.13;;;;;;;;;;4900270;29;20108;-67
2023/12/11 18:21:18;;;;;;;7.20;4.28;;;;;;;;;;4898088;29;20075;-66
2023/12/11 18:24:58;;;;;;;10.05;3.95;;;;;;;;;;4901102;29;20055;-63
2023/12/11 18:28:41;;;;;;;9.38;4.20;;;;;;;;;;4907717;29;20052;-67
2023/12/11 18:32:22;;;;;;;7.90;4.13;;;;;;;;;;4902948;29;20512;-66
2023/12/11 18:36:02;;;;;;;7.28;4.13;;;;;;;;;;4900683;29;20052;-65
2023/12/11 18:39:44;;;;;;;13.82;3.70;;;;;;;;;;4908702;29;20052;-65
2023/12/11 18:43:25;;;;;;;11.25;4.10;;;;;;;;;;4898969;29;20052;-68